Time;durP1;ratioP1;P1;durP2;ratioP2;P2;SDS_P1;SDS_P2;PMS_P1;PMS_P2;Temp;Humidity;BMP_temperature;BMP_pressure;BME280_temperature;BME280_humidity;BME280_pressure;Samples;Min_cycle;Max_cycle;Signal;HPM_P1;HPM_P2
2022/10/21 00:01:00;;;;;;;32.22;23.13;;;;;;;13.34;100.00;100759.19;5278425;28;20025;-83
2022/10/21 00:03:31;;;;;;;24.13;16.63;;;;;;;13.39;100.00;100761.38;5271513;28;20108;-84
2022/10/21 00:06:03;;;;;;;30.15;22.55;;;;;;;13.29;100.00;100741.88;5277707;28;20025;-84
2022/10/21 00:08:35;;;;;;;32.80;23.55;;;;;;;13.30;100.00;100746.25;5275887;28;20037;-84
2022/10/21 00:11:08;;;;;;;31.95;23.08;;;;;;;13.28;100.00;100743.72;5269843;28;20026;-83
2022/10/21 00:13:39;;;;;;;32.35;23.90;;;;;;;13.34;100.00;100743.13;5272957;28;20393;-84
2022/10/21 00:16:16;;;;;;;30.25;23.08;;;;;;;13.34;100.00;100750.31;5270235;28;20034;-84
2022/10/21 00:18:48;;;;;;;33.00;23.73;;;;;;;13.22;100.00;100737.19;5272924;28;20037;-84
2022/10/21 00:21:21;;;;;;;34.95;25.38;;;;;;;13.23;100.00;100738.84;5267333;28;20516;-84
2022/10/21 00:23:52;;;;;;;36.90;25.95;;;;;;;13.18;100.00;100733.16;5274238;28;20040;-84
2022/10/21 00:26:24;;;;;;;37.58;24.20;;;;;;;13.22;100.00;100731.84;5275183;28;20033;-84
2022/10/21 00:28:56;;;;;;;40.75;26.80;;;;;;;13.20;100.00;100728.50;5273836;28;20029;-84
2022/10/21 00:31:27;;;;;;;35.83;25.35;;;;;;;13.21;100.00;100714.06;5261949;28;20175;-84
2022/10/21 00:33:59;;;;;;;36.42;25.63;;;;;;;13.18;100.00;100722.47;5272749;28;20033;-84
2022/10/21 00:36:30;;;;;;;37.10;26.00;;;;;;;13.16;100.00;100719.09;5272708;28;20448;-84
2022/10/21 00:39:02;;;;;;;32.83;26.23;;;;;;;13.15;100.00;100716.59;5275831;28;20171;-84
2022/10/21 00:41:34;;;;;;;38.58;25.58;;;;;;;13.16;100.00;100732.47;5265179;28;20460;-84
2022/10/21 00:44:09;;;;;;;38.40;25.85;;;;;;;13.10;100.00;100726.94;5276399;28;20112;-84
2022/10/21 00:46:48;;;;;;;36.50;26.25;;;;;;;13.16;100.00;100731.63;5271116;28;20393;-84
2022/10/21 00:49:37;;;;;;;37.40;25.17;;;;;;;13.15;100.00;100727.31;5273680;28;20462;-84
2022/10/21 00:52:18;;;;;;;39.70;25.67;;;;;;;13.13;100.00;100730.13;5301703;27;20033;-84
2022/10/21 00:54:54;;;;;;;34.20;25.88;;;;;;;13.14;100.00;100734.47;5275141;28;20025;-84
2022/10/21 00:57:26;;;;;;;36.08;27.05;;;;;;;13.14;100.00;100722.94;5296742;28;20431;-84
2022/10/21 01:00:00;;;;;;;34.03;26.27;;;;;;;13.15;100.00;100719.28;5269079;28;20124;-84
2022/10/21 01:02:32;;;;;;;39.00;27.75;;;;;;;13.11;100.00;100712.53;5262876;28;20052;-84
2022/10/21 01:05:04;;;;;;;37.95;27.88;;;;;;;13.11;100.00;100713.38;5280541;28;20021;-83
2022/10/21 01:07:35;;;;;;;40.05;27.65;;;;;;;13.14;100.00;100705.03;5281848;28;20033;-83
2022/10/21 01:10:07;;;;;;;36.60;27.45;;;;;;;13.11;100.00;100693.78;5285885;28;20056;-84
2022/10/21 01:13:15;;;;;;;40.28;27.60;;;;;;;13.13;100.00;100695.31;5268285;28;20038;-84
2022/10/21 01:16:08;;;;;;;38.25;25.58;;;;;;;13.16;100.00;100699.50;5270585;28;20037;-84
2022/10/21 01:18:56;;;;;;;36.95;24.48;;;;;;;13.18;100.00;100692.16;5279061;28;20037;-84
2022/10/21 01:21:48;;;;;;;38.13;26.92;;;;;;;13.18;100.00;100686.78;5269774;28;20099;-83
2022/10/21 01:25:04;;;;;;;36.45;25.75;;;;;;;13.21;100.00;100675.75;5277570;28;20032;-84
2022/10/21 01:28:02;;;;;;;37.72;25.70;;;;;;;13.18;100.00;100676.06;5296689;28;20055;-83
2022/10/21 01:30:53;;;;;;;33.83;25.73;;;;;;;13.15;100.00;100671.91;5272979;28;20032;-83
2022/10/21 01:33:28;;;;;;;35.53;24.52;;;;;;;13.14;100.00;100667.53;5272954;28;20022;-83
2022/10/21 01:36:28;;;;;;;36.78;24.83;;;;;;;13.09;100.00;100661.81;5270987;28;20038;-84
2022/10/21 01:39:11;;;;;;;34.45;25.38;;;;;;;13.13;100.00;100660.50;5276786;28;20470;-83
2022/10/21 01:41:45;;;;;;;35.28;25.60;;;;;;;13.03;100.00;100659.81;5268853;28;20037;-84
2022/10/21 01:44:27;;;;;;;32.15;24.52;;;;;;;12.98;100.00;100643.41;5274281;28;20029;-83
2022/10/21 01:47:05;;;;;;;34.45;24.33;;;;;;;12.96;100.00;100645.41;5273638;28;20041;-83
2022/10/21 01:49:48;;;;;;;35.92;23.90;;;;;;;12.99;100.00;100643.25;5277054;28;20032;-84
2022/10/21 01:52:21;;;;;;;36.45;24.00;;;;;;;12.97;100.00;100641.72;5274025;28;20488;-84
2022/10/21 01:54:56;;;;;;;37.35;23.65;;;;;;;12.93;100.00;100641.19;5276879;28;20473;-83
2022/10/21 01:57:33;;;;;;;35.63;23.80;;;;;;;12.95;100.00;100638.38;5276117;28;20167;-84
2022/10/21 02:00:04;;;;;;;37.10;23.70;;;;;;;12.92;100.00;100625.28;5275106;28;20053;-84
2022/10/21 02:02:41;;;;;;;34.25;22.25;;;;;;;13.00;100.00;100625.31;5272190;28;20493;-83
2022/10/21 02:05:19;;;;;;;35.35;23.25;;;;;;;12.91;100.00;100629.00;5275760;28;20037;-84
2022/10/21 02:07:51;;;;;;;31.73;23.10;;;;;;;12.83;100.00;100630.66;5275908;28;20048;-84
2022/10/21 02:10:26;;;;;;;33.00;22.15;;;;;;;12.82;100.00;100638.84;5272905;28;20021;-83
2022/10/21 02:13:00;;;;;;;31.52;22.15;;;;;;;12.78;100.00;100626.75;5269958;28;20056;-83
2022/10/21 02:15:33;;;;;;;33.08;23.23;;;;;;;12.74;100.00;100620.88;5282968;28;20083;-84
2022/10/21 02:18:08;;;;;;;37.13;23.17;;;;;;;12.70;100.00;100608.84;5279835;28;20051;-82
2022/10/21 02:20:43;;;;;;;39.47;23.48;;;;;;;12.67;100.00;100606.47;5272082;28;20029;-83
2022/10/21 02:23:18;;;;;;;35.55;22.77;;;;;;;12.69;100.00;100607.16;5280665;28;20478;-84
2022/10/21 02:25:50;;;;;;;36.35;23.75;;;;;;;12.61;100.00;100605.31;5284175;28;20025;-83
2022/10/21 02:28:21;;;;;;;40.13;24.35;;;;;;;12.56;100.00;100596.09;5281462;28;20048;-83
2022/10/21 02:31:05;;;;;;;35.40;22.70;;;;;;;12.64;100.00;100615.69;5284939;28;20029;-83
2022/10/21 02:33:45;;;;;;;32.92;22.67;;;;;;;12.59;100.00;100612.66;5280744;28;20049;-84
2022/10/21 02:36:28;;;;;;;32.10;21.98;;;;;;;12.57;100.00;100614.66;5310689;28;20029;-83
2022/10/21 02:39:07;;;;;;;37.95;22.65;;;;;;;12.60;100.00;100613.47;5279717;28;20416;-83
2022/10/21 02:41:40;;;;;;;38.22;23.02;;;;;;;12.57;100.00;100617.34;5270092;28;20037;-84
2022/10/21 02:44:12;;;;;;;33.50;21.35;;;;;;;12.59;100.00;100620.69;5283511;28;20021;-83
2022/10/21 02:46:46;;;;;;;34.05;21.90;;;;;;;12.56;100.00;100623.66;5293135;28;20037;-83
2022/10/21 02:49:17;;;;;;;31.17;21.65;;;;;;;12.56;100.00;100604.94;5292989;28;20036;-84
2022/10/21 02:51:49;;;;;;;34.08;22.05;;;;;;;12.53;100.00;100604.44;5280148;28;20075;-83
2022/10/21 02:54:20;;;;;;;30.73;21.98;;;;;;;12.49;100.00;100599.38;5274016;28;20030;-84
2022/10/21 02:56:52;;;;;;;35.25;21.33;;;;;;;12.44;100.00;100592.84;5270012;28;20025;-84
2022/10/21 02:59:23;;;;;;;29.25;19.77;;;;;;;12.47;100.00;100598.72;5275254;28;20037;-84
2022/10/21 03:01:54;;;;;;;34.88;21.35;;;;;;;12.40;100.00;100592.34;5274315;28;20029;-84
2022/10/21 03:04:26;;;;;;;33.90;19.95;;;;;;;12.41;100.00;100596.69;5279554;28;21396;-84
2022/10/21 03:06:57;;;;;;;31.95;21.08;;;;;;;12.36;100.00;100596.34;5273289;28;20045;-84
2022/10/21 03:09:29;;;;;;;30.55;20.85;;;;;;;12.37;100.00;100598.00;5266308;28;20040;-84
2022/10/21 03:12:00;;;;;;;31.67;21.70;;;;;;;12.33;100.00;100599.31;5268430;28;20469;-84
2022/10/21 03:14:31;;;;;;;32.05;20.73;;;;;;;12.32;100.00;100591.47;5268945;28;20036;-83
2022/10/21 03:17:02;;;;;;;34.30;20.42;;;;;;;12.28;100.00;100591.78;5272339;28;20040;-84
2022/10/21 03:19:34;;;;;;;34.38;20.63;;;;;;;12.25;100.00;100585.91;5276655;28;20037;-84
2022/10/21 03:22:05;;;;;;;29.80;20.02;;;;;;;12.24;100.00;100593.09;5272713;28;20020;-83
2022/10/21 03:24:36;;;;;;;35.50;20.27;;;;;;;12.23;100.00;100607.47;5277015;28;20059;-84
2022/10/21 03:27:08;;;;;;;26.17;19.27;;;;;;;12.15;100.00;100596.75;5273199;28;20037;-84
2022/10/21 03:29:39;;;;;;;28.63;19.50;;;;;;;12.20;100.00;100610.47;5275410;28;20025;-84
2022/10/21 03:32:10;;;;;;;28.20;19.23;;;;;;;12.15;100.00;100606.56;5274532;28;20064;-83
2022/10/21 03:34:41;;;;;;;29.83;17.80;;;;;;;12.17;100.00;100604.59;5275449;28;20025;-84
2022/10/21 03:37:13;;;;;;;30.27;19.23;;;;;;;12.12;100.00;100593.53;5275297;28;20033;-84
2022/10/21 03:39:44;;;;;;;28.05;19.33;;;;;;;12.10;100.00;100589.19;5273344;28;20528;-84
2022/10/21 03:42:15;;;;;;;25.58;18.40;;;;;;;12.08;100.00;100575.13;5274685;28;20404;-84
2022/10/21 03:44:47;;;;;;;31.50;20.05;;;;;;;12.16;100.00;100600.25;5272700;28;20060;-84
2022/10/21 03:47:18;;;;;;;28.23;18.55;;;;;;;12.10;100.00;100589.19;5278630;28;20061;-84
2022/10/21 03:49:49;;;;;;;31.08;19.23;;;;;;;12.13;100.00;100596.03;5302041;28;20033;-84
2022/10/21 03:52:21;;;;;;;33.40;21.92;;;;;;;12.16;100.00;100592.22;5268825;28;20024;-84
2022/10/21 03:54:52;;;;;;;29.58;18.17;;;;;;;12.12;100.00;100585.53;5271546;28;20104;-84
2022/10/21 03:57:23;;;;;;;28.20;18.27;;;;;;;12.10;100.00;100588.34;5268907;28;20473;-84
2022/10/21 03:59:55;;;;;;;31.42;18.45;;;;;;;12.09;100.00;100587.50;5272251;28;20052;-83
2022/10/21 04:02:26;;;;;;;32.33;18.23;;;;;;;12.03;100.00;100577.44;5268589;28;20056;-83
2022/10/21 04:04:57;;;;;;;28.80;17.10;;;;;;;12.15;100.00;100583.38;5277007;28;20056;-84
2022/10/21 04:07:29;;;;;;;24.15;16.83;;;;;;;12.06;100.00;100582.47;5273937;28;20069;-83
2022/10/21 04:10:00;;;;;;;30.17;17.52;;;;;;;12.11;100.00;100592.69;5272026;28;20084;-84
2022/10/21 04:12:31;;;;;;;25.50;17.10;;;;;;;12.12;100.00;100591.69;5266695;28;20034;-83
2022/10/21 04:15:04;;;;;;;27.58;16.63;;;;;;;12.00;100.00;100587.63;5274668;28;20036;-84
2022/10/21 04:17:35;;;;;;;22.20;15.20;;;;;;;11.97;100.00;100595.94;5263652;28;20070;-84
2022/10/21 04:20:07;;;;;;;24.60;16.20;;;;;;;11.88;100.00;100598.53;5267853;28;20033;-84
2022/10/21 04:22:39;;;;;;;23.23;15.45;;;;;;;11.85;100.00;100587.31;5272675;28;20557;-84
2022/10/21 04:25:10;;;;;;;22.85;15.23;;;;;;;11.83;100.00;100583.97;5275496;28;20025;-84
2022/10/21 04:27:41;;;;;;;23.00;15.48;;;;;;;11.84;100.00;100586.47;5273247;28;20041;-84
2022/10/21 04:30:13;;;;;;;20.13;14.02;;;;;;;11.83;100.00;100582.16;5276439;28;20029;-84
2022/10/21 04:32:44;;;;;;;24.33;14.57;;;;;;;11.79;100.00;100599.47;5271048;28;20033;-84
2022/10/21 04:35:17;;;;;;;23.58;14.07;;;;;;;11.73;100.00;100600.09;5264920;28;20445;-84
2022/10/21 04:37:48;;;;;;;23.17;13.70;;;;;;;11.70;100.00;100595.06;5265235;28;20063;-84
2022/10/21 04:40:19;;;;;;;20.80;12.95;;;;;;;11.69;100.00;100602.25;5262774;28;20441;-84
2022/10/21 04:42:50;;;;;;;20.33;11.93;;;;;;;11.74;100.00;100599.09;5262074;28;20079;-84
2022/10/21 04:45:22;;;;;;;19.73;12.82;;;;;;;11.75;100.00;100607.97;5265356;28;20441;-84
2022/10/21 04:47:53;;;;;;;20.13;12.18;;;;;;;11.69;100.00;100596.91;5273482;28;20036;-84
2022/10/21 04:50:24;;;;;;;17.73;11.95;;;;;;;11.65;100.00;100600.88;5272235;28;21204;-83
2022/10/21 04:52:56;;;;;;;20.10;11.30;;;;;;;11.71;100.00;100596.72;5302997;27;20389;-84
2022/10/21 04:55:27;;;;;;;17.83;11.40;;;;;;;11.71;100.00;100592.25;5267374;28;20032;-84
2022/10/21 04:57:58;;;;;;;16.67;11.43;;;;;;;11.70;100.00;100587.88;5270131;28;20068;-84
2022/10/21 05:00:30;;;;;;;21.77;10.93;;;;;;;11.82;100.00;100596.50;5268838;28;20072;-84
2022/10/21 05:03:01;;;;;;;16.75;11.02;;;;;;;11.80;100.00;100585.13;5268359;28;20235;-84
2022/10/21 05:05:33;;;;;;;18.80;10.75;;;;;;;11.81;100.00;100583.28;5293573;28;20076;-84
2022/10/21 05:08:04;;;;;;;17.80;10.13;;;;;;;11.91;100.00;100592.91;5272842;28;20040;-84
2022/10/21 05:10:36;;;;;;;18.73;10.27;;;;;;;11.91;100.00;100584.88;5295276;28;20071;-84
2022/10/21 05:13:07;;;;;;;17.35;10.38;;;;;;;11.93;100.00;100587.41;5274327;28;20033;-83
2022/10/21 05:15:38;;;;;;;14.85;9.48;;;;;;;11.94;100.00;100593.56;5275629;28;20033;-84
2022/10/21 05:18:10;;;;;;;18.05;9.98;;;;;;;11.89;100.00;100588.69;5265495;28;20026;-83
2022/10/21 05:20:41;;;;;;;12.63;9.50;;;;;;;12.02;100.00;100588.28;5268272;28;20029;-84
2022/10/21 05:23:12;;;;;;;16.30;9.80;;;;;;;11.90;100.00;100580.56;5260852;28;20424;-83
2022/10/21 05:25:45;;;;;;;11.10;8.93;;;;;;;12.02;100.00;100580.28;5265686;28;20036;-83
2022/10/21 05:28:17;;;;;;;16.98;9.45;;;;;;;12.04;100.00;100579.13;5266118;28;20433;-83
2022/10/21 05:30:49;;;;;;;15.07;9.63;;;;;;;12.02;100.00;100572.25;5255288;28;20457;-83
2022/10/21 05:33:20;;;;;;;12.63;7.90;;;;;;;12.07;100.00;100576.13;5257249;28;20029;-84
2022/10/21 05:36:00;;;;;;;15.85;8.73;;;;;;;12.05;100.00;100561.25;5297184;27;20033;-83
2022/10/21 05:38:32;;;;;;;14.10;8.93;;;;;;;12.04;100.00;100557.75;5269431;28;20045;-84
2022/10/21 05:41:04;;;;;;;11.95;8.90;;;;;;;12.03;100.00;100549.88;5257221;28;20053;-84
2022/10/21 05:43:36;;;;;;;20.75;9.13;;;;;;;11.98;100.00;100547.69;5259483;28;20033;-83
2022/10/21 05:46:08;;;;;;;13.13;8.50;;;;;;;11.94;100.00;100553.50;5263505;28;20034;-84
2022/10/21 05:48:42;;;;;;;13.50;8.88;;;;;;;11.97;100.00;100556.69;5264314;28;20044;-83
2022/10/21 05:51:14;;;;;;;12.88;9.20;;;;;;;11.94;100.00;100550.81;5264667;28;20033;-83
2022/10/21 05:53:45;;;;;;;17.45;9.90;;;;;;;11.90;100.00;100542.25;5264065;28;20018;-84
2022/10/21 05:56:16;;;;;;;12.52;9.75;;;;;;;11.82;100.00;100542.22;5264476;28;20061;-83
2022/10/21 05:58:48;;;;;;;16.83;9.18;;;;;;;11.78;100.00;100548.84;5279345;28;20040;-84
2022/10/21 06:01:19;;;;;;;16.83;8.77;;;;;;;11.79;100.00;100542.53;5263345;28;20104;-83
2022/10/21 06:03:50;;;;;;;13.00;8.65;;;;;;;11.81;100.00;100551.22;5259724;28;20046;-83
2022/10/21 06:06:22;;;;;;;13.60;9.00;;;;;;;11.78;100.00;100557.72;5264163;28;20037;-83
2022/10/21 06:08:53;;;;;;;15.32;8.30;;;;;;;11.77;100.00;100558.72;5264521;28;20359;-84
2022/10/21 06:11:24;;;;;;;18.52;8.32;;;;;;;11.77;100.00;100556.03;5264335;28;20112;-84
2022/10/21 06:13:56;;;;;;;12.68;7.80;;;;;;;11.78;100.00;100551.53;5263859;28;20097;-83
2022/10/21 06:16:27;;;;;;;13.57;7.20;;;;;;;11.78;100.00;100548.84;5262807;28;20044;-83
2022/10/21 06:18:58;;;;;;;12.38;7.65;;;;;;;11.72;100.00;100540.47;5245476;28;20032;-84
2022/10/21 06:21:30;;;;;;;12.88;8.48;;;;;;;11.77;100.00;100550.69;5258447;28;20540;-84
2022/10/21 06:24:01;;;;;;;24.20;9.52;;;;;;;11.77;100.00;100547.19;5263386;28;20175;-84
2022/10/21 06:26:33;;;;;;;14.10;8.00;;;;;;;11.75;100.00;100541.19;5254523;28;20038;-84
2022/10/21 06:29:04;;;;;;;11.32;8.43;;;;;;;11.70;100.00;100542.47;5243594;28;20014;-84
2022/10/21 06:31:35;;;;;;;14.02;8.25;;;;;;;11.76;100.00;100545.50;5260332;28;20084;-84
2022/10/21 06:34:07;;;;;;;14.95;8.10;;;;;;;11.77;100.00;100541.84;5264560;28;20036;-84
2022/10/21 06:36:38;;;;;;;11.80;7.53;;;;;;;11.83;100.00;100543.88;5264845;28;20021;-84
2022/10/21 06:39:09;;;;;;;14.00;8.82;;;;;;;11.81;100.00;100557.41;5264820;28;20018;-84
2022/10/21 06:41:41;;;;;;;15.45;8.27;;;;;;;11.86;100.00;100557.75;5263260;28;20595;-83
2022/10/21 06:44:12;;;;;;;15.43;8.57;;;;;;;11.89;100.00;100560.13;5254049;28;20026;-83
2022/10/21 06:46:43;;;;;;;14.80;8.00;;;;;;;11.90;100.00;100563.63;5243408;28;20029;-83
2022/10/21 06:49:15;;;;;;;16.10;9.23;;;;;;;11.96;100.00;100570.22;5243193;28;20509;-83
2022/10/21 06:51:46;;;;;;;16.42;8.50;;;;;;;12.01;100.00;100571.44;5243716;28;20471;-84
2022/10/21 06:54:17;;;;;;;15.15;9.63;;;;;;;12.07;100.00;100581.47;5243499;28;20026;-83
2022/10/21 06:56:49;;;;;;;14.90;8.23;;;;;;;12.14;100.00;100588.88;5243321;28;20029;-83
2022/10/21 06:59:20;;;;;;;15.10;7.57;;;;;;;12.12;100.00;100572.16;5242607;28;22689;-84
2022/10/21 07:01:51;;;;;;;16.65;7.43;;;;;;;12.30;100.00;100596.97;5278181;28;20104;-83
2022/10/21 07:04:23;;;;;;;12.88;7.30;;;;;;;12.35;100.00;100607.19;5263025;28;20044;-83
2022/10/21 07:06:54;;;;;;;17.02;7.38;;;;;;;12.43;100.00;100608.06;5296086;28;20068;-83
2022/10/21 07:09:25;;;;;;;11.63;6.63;;;;;;;12.53;100.00;100610.59;5263773;28;20026;-83
2022/10/21 07:11:59;;;;;;;12.80;7.25;;;;;;;12.54;100.00;100614.16;5262387;28;20344;-83
2022/10/21 07:14:30;;;;;;;11.38;6.72;;;;;;;12.54;100.00;100606.94;5261703;28;20121;-83
2022/10/21 07:17:03;;;;;;;11.48;6.82;;;;;;;12.64;100.00;100626.38;5263427;28;20096;-84
2022/10/21 07:19:34;;;;;;;10.82;6.07;;;;;;;12.63;100.00;100597.94;5262772;28;20060;-83
2022/10/21 07:22:06;;;;;;;10.85;6.53;;;;;;;12.77;100.00;100606.38;5266281;28;20442;-84
2022/10/21 07:24:37;;;;;;;14.55;7.20;;;;;;;12.82;100.00;100617.41;5264227;28;20394;-84
2022/10/21 07:27:08;;;;;;;12.13;6.65;;;;;;;12.80;100.00;100625.59;5263392;28;20038;-84
2022/10/21 07:29:40;;;;;;;14.23;6.38;;;;;;;12.80;100.00;100622.09;5264059;28;20371;-85
2022/10/21 07:32:11;;;;;;;13.65;6.18;;;;;;;12.91;100.00;100621.78;5261115;28;20104;-84
2022/10/21 07:34:42;;;;;;;14.30;6.38;;;;;;;12.98;100.00;100625.47;5263475;28;20024;-85
2022/10/21 07:37:14;;;;;;;10.05;6.20;;;;;;;13.00;100.00;100623.47;5262158;28;20021;-84
2022/10/21 07:39:45;;;;;;;12.40;6.50;;;;;;;13.03;100.00;100625.84;5295332;28;20061;-85
2022/10/21 07:42:16;;;;;;;10.70;5.68;;;;;;;13.11;100.00;100630.34;5262892;28;20029;-84
2022/10/21 07:44:48;;;;;;;12.65;5.90;;;;;;;13.14;100.00;100634.56;5263496;28;20037;-84
2022/10/21 07:47:20;;;;;;;13.13;6.20;;;;;;;13.23;100.00;100641.59;5263204;28;20375;-84
2022/10/21 07:49:52;;;;;;;10.57;6.70;;;;;;;13.33;100.00;100645.00;5261994;28;20022;-84
2022/10/21 07:52:23;;;;;;;10.80;6.22;;;;;;;13.38;100.00;100641.84;5263197;28;20021;-84
2022/10/21 07:54:54;;;;;;;14.07;6.68;;;;;;;13.36;100.00;100644.69;5263203;28;20056;-82
2022/10/21 07:57:26;;;;;;;11.45;6.53;;;;;;;13.43;100.00;100643.00;5262310;28;20576;-84
2022/10/21 07:59:57;;;;;;;17.65;7.10;;;;;;;13.46;100.00;100655.22;5262743;28;20061;-84
2022/10/21 08:02:28;;;;;;;12.98;6.95;;;;;;;13.48;100.00;100639.84;5262252;28;20045;-84
2022/10/21 08:04:59;;;;;;;14.25;6.57;;;;;;;13.49;100.00;100657.59;5262775;28;20027;-84
2022/10/21 08:07:31;;;;;;;9.50;6.18;;;;;;;13.49;100.00;100644.19;5262199;28;20482;-84
2022/10/21 08:10:04;;;;;;;11.65;6.70;;;;;;;13.47;100.00;100643.53;5262520;28;20048;-84
2022/10/21 08:12:35;;;;;;;14.20;6.47;;;;;;;13.43;100.00;100636.81;5278099;28;20029;-84
2022/10/21 08:15:07;;;;;;;8.82;6.65;;;;;;;13.43;100.00;100639.50;5260337;28;30996;-83
2022/10/21 08:17:39;;;;;;;12.65;6.60;;;;;;;13.39;100.00;100630.97;5262360;28;20076;-84
2022/10/21 08:20:10;;;;;;;9.45;6.28;;;;;;;13.42;100.00;100635.13;5252195;28;20434;-83
2022/10/21 08:22:41;;;;;;;10.45;6.60;;;;;;;13.43;100.00;100626.09;5241719;28;20022;-84
2022/10/21 08:25:15;;;;;;;11.02;6.40;;;;;;;13.43;100.00;100640.34;5242119;28;20096;-83
2022/10/21 08:27:46;;;;;;;13.82;7.03;;;;;;;13.45;100.00;100653.56;5241946;28;20045;-84
2022/10/21 08:30:18;;;;;;;11.68;6.32;;;;;;;13.41;100.00;100655.75;5256914;28;20383;-84
2022/10/21 08:32:49;;;;;;;9.68;6.15;;;;;;;13.43;100.00;100650.22;5280791;28;20083;-84
2022/10/21 08:35:20;;;;;;;11.75;6.65;;;;;;;13.42;100.00;100651.22;5263959;28;20109;-84
2022/10/21 08:37:52;;;;;;;11.38;7.18;;;;;;;13.40;100.00;100650.53;5262024;28;20022;-84
2022/10/21 08:40:24;;;;;;;12.25;7.43;;;;;;;13.43;100.00;100651.06;5277446;28;20028;-83
2022/10/21 08:42:55;;;;;;;12.32;6.78;;;;;;;13.44;100.00;100662.59;5262513;28;20052;-84
2022/10/21 08:46:11;;;;;;;12.05;6.90;;;;;;;13.45;100.00;100677.69;5277217;28;20421;-84
2022/10/21 08:49:06;;;;;;;11.23;6.70;;;;;;;13.48;100.00;100665.78;5261213;28;20192;-84
2022/10/21 08:51:45;;;;;;;11.63;6.80;;;;;;;13.46;100.00;100655.22;5260193;28;20409;-84
2022/10/21 08:54:23;;;;;;;14.73;6.80;;;;;;;13.52;100.00;100661.78;5262169;28;20028;-84
2022/10/21 08:56:57;;;;;;;8.85;6.28;;;;;;;13.54;100.00;100675.84;5262081;28;20029;-84
2022/10/21 08:59:29;;;;;;;12.68;6.95;;;;;;;13.52;100.00;100686.72;5262501;28;20018;-84
2022/10/21 09:02:18;;;;;;;10.48;6.65;;;;;;;13.48;100.00;100671.13;5262033;28;20033;-84
2022/10/21 09:05:08;;;;;;;9.45;6.88;;;;;;;13.59;100.00;100681.56;5260631;28;20034;-84
2022/10/21 09:07:53;;;;;;;11.13;6.93;;;;;;;13.68;100.00;100680.53;5262244;28;20030;-83
2022/10/21 09:10:37;;;;;;;10.15;6.47;;;;;;;13.70;100.00;100689.25;5262053;28;20072;-83
2022/10/21 09:13:17;;;;;;;10.80;7.50;;;;;;;13.72;100.00;100689.91;5260684;28;20419;-83
2022/10/21 09:16:12;;;;;;;10.40;6.50;;;;;;;13.77;100.00;100684.06;5260829;28;20021;-83
2022/10/21 09:18:59;;;;;;;9.38;5.50;;;;;;;13.84;100.00;100670.84;5261859;28;20018;-84
2022/10/21 09:21:48;;;;;;;8.88;4.57;;;;;;;14.01;100.00;100656.41;5261673;28;20022;-84
2022/10/21 09:24:34;;;;;;;6.72;3.25;;;;;;;14.08;100.00;100661.94;5260202;28;20064;-83
2022/10/21 09:27:09;;;;;;;6.25;2.97;;;;;;;14.24;100.00;100663.75;5261570;28;20025;-84
2022/10/21 09:29:43;;;;;;;7.68;2.60;;;;;;;14.41;100.00;100659.16;5262046;28;20105;-85
2022/10/21 09:32:22;;;;;;;4.03;2.17;;;;;;;14.60;100.00;100682.13;5262785;28;20033;-84
2022/10/21 09:35:07;;;;;;;5.97;2.70;;;;;;;14.64;100.00;100670.03;5283663;28;20037;-84
2022/10/21 09:38:02;;;;;;;7.00;2.45;;;;;;;14.77;100.00;100673.00;5283366;28;20630;-85
2022/10/21 09:40:33;;;;;;;3.70;1.88;;;;;;;14.89;100.00;100662.72;5280923;28;20041;-83
2022/10/21 09:43:15;;;;;;;7.07;2.58;;;;;;;15.06;100.00;100658.09;5282829;28;20369;-84
2022/10/21 09:45:47;;;;;;;9.70;2.70;;;;;;;15.10;100.00;100662.13;5257236;28;20061;-84
2022/10/21 09:48:18;;;;;;;7.70;2.97;;;;;;;15.19;100.00;100665.59;5261528;28;20116;-84
2022/10/21 09:50:53;;;;;;;11.57;3.35;;;;;;;15.27;100.00;100668.22;5261677;28;20051;-84
2022/10/21 09:53:32;;;;;;;5.38;2.63;;;;;;;15.28;100.00;100661.84;5260140;28;20027;-84
2022/10/21 09:56:10;;;;;;;6.72;2.88;;;;;;;15.37;100.00;100671.50;5261465;28;20417;-83
2022/10/21 09:58:41;;;;;;;5.97;3.25;;;;;;;15.40;100.00;100673.84;5261059;28;20025;-83
2022/10/21 10:01:19;;;;;;;7.77;3.47;;;;;;;15.39;100.00;100672.19;5279283;28;20037;-83
2022/10/21 10:03:51;;;;;;;6.10;3.25;;;;;;;15.41;100.00;100677.38;5264218;28;20710;-83
2022/10/21 10:06:41;;;;;;;7.95;3.97;;;;;;;15.43;100.00;100675.38;5263181;28;20017;-83
2022/10/21 10:09:30;;;;;;;7.07;3.58;;;;;;;15.54;100.00;100680.31;5264250;28;20044;-83
2022/10/21 10:12:05;;;;;;;7.15;4.07;;;;;;;15.58;100.00;100680.78;5264280;28;20117;-83
2022/10/21 10:14:39;;;;;;;6.82;4.20;;;;;;;15.63;100.00;100678.41;5263208;28;20025;-84
2022/10/21 10:17:32;;;;;;;7.65;3.67;;;;;;;15.71;100.00;100683.72;5263623;28;20426;-84
2022/10/21 10:20:06;;;;;;;6.28;4.22;;;;;;;15.94;100.00;100689.09;5255038;28;20022;-83
2022/10/21 10:22:42;;;;;;;7.55;3.72;;;;;;;16.14;100.00;100691.28;5266793;28;20029;-83
2022/10/21 10:25:13;;;;;;;10.13;4.07;;;;;;;16.44;100.00;100692.16;5285569;28;20036;-84
2022/10/21 10:28:00;;;;;;;6.33;4.00;;;;;;;16.95;100.00;100691.44;5294557;28;20073;-84
2022/10/21 10:30:44;;;;;;;10.20;4.28;;;;;;;17.56;100.00;100696.47;5278569;28;20302;-83
2022/10/21 10:33:19;;;;;;;9.13;5.00;;;;;;;17.97;100.00;100687.78;5297954;28;20030;-83
2022/10/21 10:35:54;;;;;;;10.43;4.87;;;;;;;18.13;100.00;100683.94;5285199;28;20053;-83
2022/10/21 10:38:31;;;;;;;10.43;5.30;;;;;;;18.20;100.00;100676.75;5286038;28;20028;-83
2022/10/21 10:41:09;;;;;;;9.38;4.88;;;;;;;18.14;100.00;100666.72;5271311;28;20428;-83
2022/10/21 10:43:48;;;;;;;8.45;4.45;;;;;;;18.10;100.00;100685.16;5261678;28;20028;-84
2022/10/21 10:46:28;;;;;;;6.25;3.90;;;;;;;18.37;100.00;100685.34;5264840;28;20079;-84
2022/10/21 10:49:20;;;;;;;7.35;3.70;;;;;;;18.78;100.00;100684.56;5263943;28;20029;-83
2022/10/21 10:52:09;;;;;;;9.23;4.20;;;;;;;19.47;100.00;100685.44;5264198;28;20056;-84
2022/10/21 10:54:42;;;;;;;9.13;3.78;;;;;;;20.22;100.00;100682.63;5264647;28;20532;-84
2022/10/21 10:57:24;;;;;;;6.28;3.55;;;;;;;20.92;100.00;100673.94;5264233;28;20486;-84
2022/10/21 11:00:16;;;;;;;7.05;3.05;;;;;;;22.38;100.00;100682.13;5263512;28;20072;-85
2022/10/21 11:03:01;;;;;;;6.35;2.97;;;;;;;22.58;100.00;100662.88;5264878;28;20054;-83
2022/10/21 11:05:41;;;;;;;5.32;3.75;;;;;;;22.10;100.00;100657.06;5264355;28;20480;-85
2022/10/21 11:08:19;;;;;;;4.72;3.13;;;;;;;22.35;100.00;100655.41;5263580;28;20065;-83
2022/10/21 11:10:56;;;;;;;4.38;3.03;;;;;;;22.08;100.00;100636.63;5243321;28;20018;-84
2022/10/21 11:13:27;;;;;;;5.53;3.80;;;;;;;24.01;100.00;100649.63;5243104;28;20129;-83
2022/10/21 11:16:29;;;;;;;6.43;3.90;;;;;;;23.89;100.00;100646.06;5258062;28;20124;-84
2022/10/21 11:19:22;;;;;;;5.97;3.20;;;;;;;23.66;100.00;100634.03;5253575;28;20446;-84
2022/10/21 11:22:01;;;;;;;7.78;2.95;;;;;;;23.55;100.00;100632.97;5279437;28;20620;-84
2022/10/21 11:24:45;;;;;;;6.57;3.17;;;;;;;24.12;100.00;100648.81;5278877;28;20075;-84
2022/10/21 11:27:35;;;;;;;4.95;3.08;;;;;;;24.81;100.00;100652.75;5263518;28;20359;-84
2022/10/21 11:30:11;;;;;;;4.82;2.30;;;;;;;26.63;100.00;100650.91;5278102;28;20021;-84
2022/10/21 11:33:26;;;;;;;4.90;2.30;;;;;;;28.78;100.00;100663.72;5264040;28;20474;-85
2022/10/21 11:36:39;;;;;;;7.22;2.53;;;;;;;30.35;100.00;100660.63;5265521;28;20048;-84
2022/10/21 11:40:01;;;;;;;7.03;2.15;;;;;;;30.20;100.00;100654.31;5265864;28;20040;-85
2022/10/21 11:42:55;;;;;;;12.05;2.88;;;;;;;29.03;100.00;100657.53;5263377;28;20028;-84
2022/10/21 11:49:48;;;;;;;2.95;1.30;;;;;;;28.19;100.00;100651.09;5262216;28;20038;-84